createdAt,value
2018-03-03T00:02:28.026Z,53.70
2018-03-03T00:04:55.652Z,53.70
2018-03-03T00:07:23.588Z,53.70
2018-03-03T00:09:51.283Z,53.90
2018-03-03T00:12:18.935Z,53.90
2018-03-03T00:14:47.884Z,53.90
2018-03-03T00:17:16.002Z,53.90
2018-03-03T00:19:43.613Z,53.80
2018-03-03T00:25:12.784Z,54.10
2018-03-03T00:27:40.956Z,54.40
2018-03-03T00:30:10.451Z,53.90
2018-03-03T00:32:37.995Z,54.30
2018-03-03T00:35:07.110Z,54.00
2018-03-03T00:37:35.806Z,54.00
2018-03-03T00:40:03.962Z,53.90
2018-03-03T00:42:31.816Z,53.30
2018-03-03T00:45:00.180Z,53.90
2018-03-03T00:47:29.945Z,54.30
2018-03-03T00:49:58.509Z,54.50
2018-03-03T00:52:28.285Z,54.30
2018-03-03T00:54:59.617Z,54.20
2018-03-03T00:57:28.786Z,54.60
2018-03-03T00:59:57.617Z,54.60
2018-03-03T01:02:26.072Z,54.20
2018-03-03T01:04:55.401Z,54.30
2018-03-03T01:07:25.342Z,54.80
2018-03-03T01:09:54.454Z,54.40
2018-03-03T01:12:23.668Z,54.90
2018-03-03T01:14:52.699Z,54.60
2018-03-03T01:17:21.654Z,54.50
2018-03-03T01:19:49.316Z,54.10
2018-03-03T01:22:17.851Z,54.20
2018-03-03T01:24:46.459Z,54.70
2018-03-03T01:27:14.162Z,54.80
2018-03-03T01:29:43.876Z,55.00
2018-03-03T01:32:13.238Z,54.40
2018-03-03T01:34:40.860Z,54.50
2018-03-03T01:37:08.398Z,54.90
2018-03-03T01:39:35.983Z,54.60
2018-03-03T01:42:03.770Z,55.00
2018-03-03T01:44:35.406Z,54.30
2018-03-03T01:47:03.736Z,54.80
2018-03-03T01:49:32.086Z,54.90
2018-03-03T01:52:00.796Z,55.40
2018-03-03T01:54:28.353Z,55.40
2018-03-03T01:56:56.177Z,55.30
2018-03-03T01:59:24.750Z,55.30
2018-03-03T02:01:53.237Z,54.70
2018-03-03T02:04:20.822Z,55.10
2018-03-03T02:06:48.386Z,54.10
2018-03-03T02:09:16.375Z,54.50
2018-03-03T02:11:49.184Z,54.20
2018-03-03T02:14:18.824Z,54.10
2018-03-03T02:16:46.620Z,54.20
2018-03-03T02:19:14.893Z,54.70
2018-03-03T02:21:44.325Z,55.50
2018-03-03T02:24:14.410Z,56.80
2018-03-03T02:26:45.577Z,55.50
2018-03-03T02:29:14.888Z,55.30
2018-03-03T02:31:42.442Z,55.10
2018-03-03T02:34:09.973Z,55.00
2018-03-03T02:36:39.125Z,55.20
2018-03-03T02:39:06.700Z,54.40
2018-03-03T02:41:36.202Z,54.80
2018-03-03T02:44:03.740Z,55.00
2018-03-03T02:46:34.928Z,55.40
2018-03-03T02:49:04.137Z,55.20
2018-03-03T02:51:34.396Z,55.20
2018-03-03T02:54:03.860Z,54.60
2018-03-03T02:56:32.272Z,55.00
2018-03-03T02:59:00.402Z,54.80
2018-03-03T03:01:29.123Z,55.20
2018-03-03T03:03:56.722Z,55.20
2018-03-03T03:06:26.102Z,55.00
2018-03-03T03:08:54.421Z,55.00
2018-03-03T03:11:22.921Z,55.00
2018-03-03T03:13:51.686Z,55.00
2018-03-03T03:16:20.801Z,55.30
2018-03-03T03:18:49.541Z,55.30
2018-03-03T03:21:18.770Z,55.20
2018-03-03T03:23:47.141Z,55.20
2018-03-03T03:26:15.473Z,55.00
2018-03-03T03:28:43.806Z,55.40
2018-03-03T03:31:12.938Z,55.00
2018-03-03T03:33:42.422Z,55.70
2018-03-03T03:36:10.031Z,55.00
2018-03-03T03:38:38.488Z,55.10
2018-03-03T03:41:06.041Z,54.90
2018-03-03T03:43:33.623Z,54.90
2018-03-03T03:46:01.695Z,54.90
2018-03-03T03:48:30.261Z,55.00
2018-03-03T03:50:58.941Z,56.10
2018-03-03T03:53:27.095Z,54.80
2018-03-03T03:55:59.576Z,54.60
2018-03-03T03:58:30.649Z,54.60
2018-03-03T04:00:58.857Z,54.60
2018-03-03T04:03:28.377Z,55.00
2018-03-03T04:05:56.548Z,55.00
2018-03-03T04:08:25.087Z,55.30
2018-03-03T04:10:54.082Z,55.50
2018-03-03T04:13:21.969Z,55.30
2018-03-03T04:15:50.461Z,54.50
2018-03-03T04:18:19.054Z,55.00
2018-03-03T04:20:46.634Z,55.30
2018-03-03T04:23:14.723Z,55.10
2018-03-03T04:25:42.293Z,55.50
2018-03-03T04:28:10.470Z,55.30
2018-03-03T04:30:40.066Z,54.80
2018-03-03T04:33:09.202Z,55.00
2018-03-03T04:35:37.756Z,55.10
2018-03-03T04:38:07.247Z,54.80
2018-03-03T04:40:35.769Z,55.00
2018-03-03T04:43:04.179Z,55.40
2018-03-03T04:45:33.341Z,55.40
2018-03-03T04:48:03.598Z,55.50
2018-03-03T04:50:33.761Z,55.40
2018-03-03T04:53:03.368Z,55.40
2018-03-03T04:55:32.777Z,54.80
2018-03-03T04:58:00.546Z,55.10
2018-03-03T05:00:43.194Z,54.80
2018-03-03T05:03:18.316Z,54.70
2018-03-03T05:06:02.320Z,55.10
2018-03-03T05:08:37.781Z,55.10
2018-03-03T05:11:10.166Z,54.80
2018-03-03T05:13:42.764Z,55.20
2018-03-03T05:16:33.478Z,55.10
2018-03-03T05:19:10.449Z,54.50
2018-03-03T05:21:46.149Z,54.90
2018-03-03T05:24:19.333Z,55.10
2018-03-03T05:29:56.288Z,54.20
2018-03-03T05:32:29.482Z,54.40
2018-03-03T05:35:02.948Z,54.30
2018-03-03T05:37:38.119Z,54.20
2018-03-03T05:40:12.304Z,54.70
2018-03-03T05:42:45.509Z,54.20
2018-03-03T05:48:38.653Z,54.70
2018-03-03T05:54:07.437Z,54.90
2018-03-03T05:56:40.538Z,55.00
2018-03-03T05:59:22.038Z,54.70
2018-03-03T06:01:51.501Z,55.10
2018-03-03T06:04:24.877Z,54.50
2018-03-03T06:06:53.085Z,55.00
2018-03-03T06:09:24.048Z,54.00
2018-03-03T06:11:52.139Z,54.00
2018-03-03T06:14:19.745Z,54.40
2018-03-03T06:16:47.965Z,54.30
2018-03-03T06:19:16.534Z,53.70
2018-03-03T06:21:44.425Z,53.80
2018-03-03T06:24:14.013Z,54.20
2018-03-03T06:26:42.431Z,54.50
2018-03-03T06:29:10.498Z,54.20
2018-03-03T06:31:38.785Z,54.70
2018-03-03T06:34:07.213Z,54.30
2018-03-03T06:36:36.009Z,54.70
2018-03-03T06:39:06.681Z,54.40
2018-03-03T06:41:37.807Z,54.30
2018-03-03T06:44:05.436Z,54.20
2018-03-03T06:46:33.907Z,54.40
2018-03-03T06:49:04.030Z,54.60
2018-03-03T06:51:33.437Z,54.50
2018-03-03T06:54:01.044Z,54.40
2018-03-03T06:56:30.166Z,53.80
2018-03-03T06:58:57.709Z,53.80
2018-03-03T07:01:26.075Z,53.70
2018-03-03T07:03:53.685Z,53.90
2018-03-03T07:06:23.143Z,54.60
2018-03-03T07:08:50.766Z,54.50
2018-03-03T07:11:19.452Z,55.20
2018-03-03T07:13:48.400Z,54.50
2018-03-03T07:16:16.593Z,54.90
2018-03-03T07:18:45.043Z,54.90
2018-03-03T07:21:14.162Z,55.00
2018-03-03T07:23:41.755Z,55.30
2018-03-03T07:26:12.130Z,55.80
2018-03-03T07:28:39.688Z,55.50
2018-03-03T07:31:07.955Z,55.40
2018-03-03T07:33:36.553Z,55.20
2018-03-03T07:36:07.651Z,55.00
2018-03-03T07:38:35.465Z,55.40
2018-03-03T07:41:04.996Z,55.30
2018-03-03T07:43:36.892Z,54.80
2018-03-03T07:46:04.712Z,55.00
2018-03-03T07:48:34.504Z,54.90
2018-03-03T07:51:04.093Z,54.80
2018-03-03T07:53:32.496Z,55.20
2018-03-03T07:56:00.086Z,54.60
2018-03-03T07:58:38.993Z,55.60
2018-03-03T08:03:57.767Z,54.50
2018-03-03T08:06:25.453Z,54.30
2018-03-03T08:08:53.061Z,54.80
2018-03-03T08:11:20.640Z,54.30
2018-03-03T08:13:48.414Z,54.30
2018-03-03T08:16:16.000Z,53.50
2018-03-03T08:18:43.612Z,54.00
2018-03-03T08:21:11.307Z,53.90
2018-03-03T08:23:39.064Z,53.60
2018-03-03T08:26:06.793Z,53.10
2018-03-03T08:28:34.393Z,53.60
2018-03-03T08:31:02.780Z,52.70
2018-03-03T08:33:31.178Z,52.80
2018-03-03T08:35:59.149Z,52.80
2018-03-03T08:38:27.730Z,52.50
2018-03-03T08:40:55.467Z,52.50
2018-03-03T08:43:23.862Z,53.00
2018-03-03T08:45:51.496Z,53.00
2018-03-03T08:48:19.244Z,53.30
2018-03-03T08:50:46.934Z,53.60
2018-03-03T08:53:17.744Z,53.80
2018-03-03T08:55:45.514Z,53.90
2018-03-03T08:58:13.536Z,53.40
2018-03-03T09:00:41.965Z,53.20
2018-03-03T09:03:09.580Z,53.10
2018-03-03T09:05:37.476Z,52.80
2018-03-03T09:08:05.058Z,52.70
2018-03-03T09:10:32.957Z,52.80
2018-03-03T09:13:00.597Z,52.70
2018-03-03T09:15:28.296Z,52.10
2018-03-03T09:17:55.844Z,52.10
2018-03-03T09:20:23.565Z,52.60
2018-03-03T09:22:51.971Z,52.60
2018-03-03T09:25:19.576Z,52.60
2018-03-03T10:12:38.391Z,49.00
2018-03-03T10:15:06.184Z,49.40
2018-03-03T10:17:33.847Z,49.10
2018-03-03T10:20:01.445Z,48.90
2018-03-03T10:22:29.130Z,50.40
2018-03-03T10:24:56.699Z,50.60
2018-03-03T10:27:25.176Z,49.60
2018-03-03T10:29:52.814Z,49.50
2018-03-03T10:32:20.506Z,49.50
2018-03-03T10:34:49.015Z,48.60
2018-03-03T10:37:16.721Z,48.50
2018-03-03T10:39:44.298Z,48.60
2018-03-03T10:42:11.998Z,48.70
2018-03-03T10:44:39.745Z,48.50
2018-03-03T10:47:07.796Z,47.20
2018-03-03T10:49:35.363Z,46.20
2018-03-03T10:52:02.970Z,46.70
2018-03-03T10:54:30.645Z,45.70
2018-03-03T10:56:58.606Z,45.00
2018-03-03T10:59:26.433Z,45.50
2018-03-03T11:01:54.057Z,45.30
2018-03-03T11:04:21.708Z,44.20
2018-03-03T11:06:50.084Z,44.10
2018-03-03T11:09:18.427Z,43.20
2018-03-03T11:11:46.027Z,43.20
2018-03-03T11:14:13.631Z,42.00
2018-03-03T11:16:41.237Z,41.90
2018-03-03T11:19:08.811Z,40.30
2018-03-03T11:21:37.267Z,40.40
2018-03-03T11:24:04.924Z,39.10
2018-03-03T11:26:32.753Z,39.60
2018-03-03T11:29:00.349Z,38.80
2018-03-03T11:31:27.970Z,39.30
2018-03-03T11:33:56.307Z,39.00
2018-03-03T11:36:25.152Z,38.50
2018-03-03T11:38:52.729Z,38.50
2018-03-03T11:41:20.347Z,38.00
2018-03-03T11:43:47.957Z,36.60
2018-03-03T11:46:15.743Z,35.90
2018-03-03T11:48:44.164Z,35.30
2018-03-03T11:51:11.765Z,35.30
2018-03-03T11:53:39.395Z,34.40
2018-03-03T11:56:07.448Z,34.20
2018-03-03T11:58:35.051Z,34.10
2018-03-03T12:01:02.652Z,34.60
2018-03-03T12:03:30.816Z,35.10
2018-03-03T12:05:59.987Z,35.20
2018-03-03T12:08:27.589Z,35.10
2018-03-03T12:10:55.208Z,33.70
2018-03-03T12:13:22.811Z,32.30
2018-03-03T12:15:50.430Z,32.90
2018-03-03T12:18:18.827Z,33.20
2018-03-03T12:20:46.562Z,31.30
2018-03-03T12:23:14.209Z,31.70
2018-03-03T12:25:42.592Z,31.30
2018-03-03T12:28:10.204Z,31.20
2018-03-03T12:30:37.808Z,32.50
2018-03-03T12:33:05.514Z,31.00
2018-03-03T12:35:33.097Z,30.90
2018-03-03T12:38:00.720Z,31.20
2018-03-03T12:40:28.486Z,30.80
2018-03-03T12:42:56.155Z,30.00
2018-03-03T12:45:23.743Z,30.40
2018-03-03T12:47:52.123Z,29.50
2018-03-03T12:50:19.717Z,29.50
2018-03-03T12:52:47.481Z,29.60
2018-03-03T12:55:15.876Z,28.90
2018-03-03T12:57:43.796Z,29.30
2018-03-03T13:00:12.112Z,28.30
2018-03-03T13:02:39.717Z,28.30
2018-03-03T13:05:07.329Z,27.60
2018-03-03T13:07:35.900Z,27.50
2018-03-03T13:10:04.567Z,27.00
2018-03-03T13:12:32.217Z,26.20
2018-03-03T13:14:59.884Z,26.60
2018-03-03T13:17:28.233Z,27.80
2018-03-03T13:19:55.918Z,27.90
2018-03-03T13:22:24.316Z,27.40
2018-03-03T13:24:52.741Z,28.00
2018-03-03T13:27:20.356Z,28.00
2018-03-03T13:29:48.025Z,26.70
2018-03-03T13:32:15.613Z,26.30
2018-03-03T13:34:43.238Z,25.90
2018-03-03T13:37:10.856Z,26.10
2018-03-03T13:39:39.078Z,25.50
2018-03-03T13:42:07.413Z,26.50
2018-03-03T13:44:35.027Z,25.80
2018-03-03T13:47:02.717Z,25.90
2018-03-03T13:49:30.436Z,24.70
2018-03-03T13:51:58.136Z,25.20
2018-03-03T13:54:25.732Z,24.90
2018-03-03T13:56:53.309Z,24.00
2018-03-03T13:59:21.826Z,23.90
2018-03-03T14:01:49.607Z,23.90
2018-03-03T14:04:17.234Z,24.50
2018-03-03T14:06:44.846Z,24.40
2018-03-03T14:09:12.463Z,24.50
2018-03-03T14:11:40.062Z,24.80
2018-03-03T14:14:07.683Z,25.00
2018-03-03T14:16:35.255Z,25.90
2018-03-03T14:19:02.856Z,26.10
2018-03-03T14:21:31.131Z,26.70
2018-03-03T14:23:59.505Z,27.20
2018-03-03T14:26:27.156Z,27.30
2018-03-03T14:28:56.160Z,28.00
2018-03-03T14:31:24.071Z,27.50
2018-03-03T14:33:51.686Z,27.80
2018-03-03T14:36:19.432Z,28.20
2018-03-03T14:38:47.608Z,27.90
2018-03-03T14:41:15.997Z,28.60
2018-03-03T14:43:43.865Z,29.00
2018-03-03T14:46:12.525Z,29.60
2018-03-03T14:48:41.785Z,29.70
2018-03-03T14:51:09.464Z,29.90
2018-03-03T14:53:37.435Z,30.00
2018-03-03T14:56:05.041Z,30.30
2018-03-03T14:58:32.652Z,31.20
2018-03-03T15:01:01.989Z,31.40
2018-03-03T15:03:32.277Z,32.00
2018-03-03T15:06:00.303Z,31.90
2018-03-03T15:08:28.280Z,32.30
2018-03-03T15:10:56.285Z,31.90
2018-03-03T15:13:25.094Z,32.50
2018-03-03T15:15:53.170Z,32.60
2018-03-03T15:18:21.481Z,32.80
2018-03-03T15:20:49.531Z,33.20
2018-03-03T15:23:17.128Z,33.70
2018-03-03T15:25:45.604Z,34.50
2018-03-03T15:28:13.368Z,34.20
2018-03-03T15:30:41.340Z,34.00
2018-03-03T15:33:10.771Z,34.30
2018-03-03T15:35:38.496Z,34.40
2018-03-03T15:38:08.002Z,34.40
2018-03-03T15:40:36.808Z,34.70
2018-03-03T15:43:04.777Z,33.90
2018-03-03T15:45:33.828Z,34.40
2018-03-03T15:48:01.449Z,34.00
2018-03-03T15:50:29.064Z,34.00
2018-03-03T15:52:56.868Z,33.90
2018-03-03T15:55:25.185Z,34.40
2018-03-03T15:57:54.141Z,35.20
2018-03-03T16:00:22.908Z,35.30
2018-03-03T16:02:50.488Z,36.20
2018-03-03T16:05:18.480Z,36.80
2018-03-03T16:07:46.071Z,36.70
2018-03-03T16:10:14.429Z,36.40
2018-03-03T16:12:54.668Z,36.50
2018-03-03T16:15:22.322Z,36.40
2018-03-03T16:17:49.914Z,36.40
2018-03-03T16:20:17.502Z,36.30
2018-03-03T16:22:45.103Z,36.80
2018-03-03T16:25:12.801Z,36.90
2018-03-03T16:27:40.373Z,37.00
2018-03-03T16:30:08.053Z,36.60
2018-03-03T16:32:36.445Z,37.00
2018-03-03T16:35:04.000Z,36.50
2018-03-03T16:37:32.383Z,37.10
2018-03-03T16:40:00.434Z,36.70
2018-03-03T16:42:28.096Z,36.70
2018-03-03T16:44:55.710Z,37.00
2018-03-03T16:47:23.302Z,37.10
2018-03-03T16:49:50.894Z,37.40
2018-03-03T16:52:19.418Z,37.80
2018-03-03T16:54:47.186Z,37.60
2018-03-03T16:57:14.793Z,39.50
2018-03-03T16:59:43.321Z,39.90
2018-03-03T17:02:11.280Z,39.50
2018-03-03T17:04:39.965Z,38.60
2018-03-03T17:07:08.929Z,39.40
2018-03-03T17:09:36.748Z,39.90
2018-03-03T17:12:04.361Z,41.20
2018-03-03T17:14:31.955Z,41.70
2018-03-03T17:16:59.537Z,41.90
2018-03-03T17:19:27.465Z,42.40
2018-03-03T17:21:55.544Z,42.90
2018-03-03T17:24:23.218Z,42.70
2018-03-03T17:26:50.804Z,42.40
2018-03-03T17:29:18.388Z,41.70
2018-03-03T17:31:46.386Z,42.10
2018-03-03T17:34:13.953Z,42.70
2018-03-03T17:36:41.545Z,43.30
2018-03-03T17:39:09.616Z,43.60
2018-03-03T17:41:37.176Z,43.90
2018-03-03T17:44:04.794Z,44.50
2018-03-03T17:46:32.516Z,45.20
2018-03-03T17:49:01.135Z,45.90
2018-03-03T17:51:31.924Z,46.60
2018-03-03T17:53:59.642Z,47.00
2018-03-03T17:56:27.262Z,47.70
2018-03-03T17:58:55.012Z,47.80
2018-03-03T18:01:22.677Z,47.30
2018-03-03T18:03:51.431Z,47.20
2018-03-03T18:06:19.020Z,48.10
2018-03-03T18:08:47.047Z,49.00
2018-03-03T18:11:16.424Z,49.80
2018-03-03T18:13:44.894Z,50.50
2018-03-03T18:16:13.243Z,51.50
2018-03-03T18:18:41.174Z,51.00
2018-03-03T18:21:08.841Z,51.00
2018-03-03T18:23:36.621Z,51.40
2018-03-03T18:26:04.493Z,50.10
2018-03-03T18:28:32.189Z,49.90
2018-03-03T18:30:59.792Z,49.20
2018-03-03T18:33:27.531Z,48.60
2018-03-03T18:35:55.888Z,48.30
2018-03-03T18:38:23.509Z,48.00
2018-03-03T18:40:51.812Z,47.80
2018-03-03T18:43:19.493Z,47.70
2018-03-03T18:45:47.849Z,47.80
2018-03-03T18:48:16.409Z,48.10
2018-03-03T18:50:44.844Z,48.60
2018-03-03T18:53:12.852Z,47.80
2018-03-03T18:55:40.866Z,47.80
2018-03-03T18:58:08.462Z,47.90
2018-03-03T19:00:37.195Z,48.30
2018-03-03T19:03:05.558Z,49.70
2018-03-03T19:05:33.172Z,50.20
2018-03-03T19:08:00.750Z,51.00
2018-03-03T19:10:28.655Z,52.20
2018-03-03T19:12:56.289Z,53.90
2018-03-03T19:15:25.510Z,53.80
2018-03-03T19:17:53.996Z,53.80
2018-03-03T19:20:22.400Z,55.00
2018-03-03T19:22:50.374Z,55.20
2018-03-03T19:25:18.246Z,56.10
2018-03-03T19:27:46.124Z,55.80
2018-03-03T19:30:13.917Z,56.10
2018-03-03T19:32:41.585Z,56.50
2018-03-03T19:35:09.322Z,56.40
2018-03-03T19:37:39.896Z,56.20
2018-03-03T19:40:08.315Z,57.10
2018-03-03T19:42:36.043Z,57.00
2018-03-03T19:45:04.478Z,57.10
2018-03-03T19:47:32.316Z,57.10
2018-03-03T19:50:00.378Z,58.40
2018-03-03T19:52:28.038Z,58.80
2018-03-03T19:54:55.662Z,59.30
2018-03-03T19:57:23.304Z,59.60
2018-03-03T19:59:51.056Z,59.70
2018-03-03T20:02:18.855Z,59.80
2018-03-03T20:04:46.656Z,59.70
2018-03-03T20:07:14.297Z,59.50
2018-03-03T20:09:43.330Z,60.30
2018-03-03T20:12:10.972Z,60.10
2018-03-03T20:14:39.497Z,60.50
2018-03-03T20:17:10.795Z,60.10
2018-03-03T20:19:38.789Z,60.40
2018-03-03T20:22:07.349Z,61.10
2018-03-03T20:24:35.080Z,60.80
2018-03-03T20:27:02.902Z,60.30
2018-03-03T20:29:31.369Z,60.80
2018-03-03T20:31:59.778Z,61.00
2018-03-03T20:34:27.393Z,60.40
2018-03-03T20:36:55.829Z,60.90
2018-03-03T20:39:23.561Z,60.40
2018-03-03T20:41:55.648Z,62.00
2018-03-03T20:44:23.291Z,61.00
2018-03-03T20:46:51.028Z,61.10
2018-03-03T20:49:19.443Z,61.70
2018-03-03T20:51:48.690Z,62.10
2018-03-03T20:54:17.309Z,62.10
2018-03-03T20:56:45.046Z,61.20
2018-03-03T20:59:12.756Z,61.20
2018-03-03T21:01:40.411Z,61.30
2018-03-03T21:04:08.797Z,61.80
2018-03-03T21:06:37.467Z,61.10
2018-03-03T21:09:05.890Z,61.60
2018-03-03T21:11:39.904Z,61.60
2018-03-03T21:14:07.826Z,61.70
2018-03-03T21:16:35.542Z,61.60
2018-03-03T21:19:03.789Z,61.30
2018-03-03T21:21:31.531Z,61.20
2018-03-03T21:24:00.077Z,61.50
2018-03-03T21:26:27.692Z,61.90
2018-03-03T21:28:55.365Z,61.90
2018-03-03T21:31:22.988Z,62.00
2018-03-03T21:34:00.420Z,63.10
2018-03-03T21:36:28.616Z,62.40
2018-03-03T21:38:57.432Z,62.80
2018-03-03T21:41:26.471Z,62.70
2018-03-03T21:43:54.103Z,63.10
2018-03-03T21:46:22.454Z,62.90
2018-03-03T21:48:50.501Z,62.10
2018-03-03T21:51:19.619Z,62.00
2018-03-03T21:53:47.741Z,61.40
2018-03-03T21:56:15.673Z,62.10
2018-03-03T21:58:43.367Z,61.90
2018-03-03T22:01:11.259Z,61.60
2018-03-03T22:03:41.381Z,61.90
2018-03-03T22:06:09.019Z,62.10
2018-03-03T22:08:36.698Z,61.90
2018-03-03T22:11:04.475Z,62.00
2018-03-03T22:13:32.730Z,62.70
2018-03-03T22:16:00.343Z,62.10
2018-03-03T22:18:27.973Z,62.70
2018-03-03T22:20:56.338Z,62.70
2018-03-03T22:23:24.663Z,62.60
2018-03-03T22:25:55.412Z,62.00
2018-03-03T22:28:23.116Z,62.00
2018-03-03T22:30:51.046Z,62.20
2018-03-03T22:33:20.091Z,62.80
2018-03-03T22:35:48.322Z,62.70
2018-03-03T22:38:16.357Z,62.40
2018-03-03T22:40:44.402Z,62.20
2018-03-03T22:43:12.491Z,62.30
2018-03-03T22:45:40.643Z,62.80
2018-03-03T22:48:09.213Z,62.50
2018-03-03T22:50:36.875Z,62.00
2018-03-03T22:53:04.495Z,61.80
2018-03-03T22:55:32.527Z,61.50
2018-03-03T22:58:00.742Z,61.70
2018-03-03T23:00:28.515Z,61.80
2018-03-03T23:02:56.481Z,61.90
2018-03-03T23:05:25.348Z,62.50
2018-03-03T23:07:52.935Z,61.90
2018-03-03T23:10:21.613Z,62.10
2018-03-03T23:12:49.254Z,62.70
2018-03-03T23:15:17.449Z,61.80
2018-03-03T23:17:45.312Z,61.50
2018-03-03T23:20:13.002Z,61.30
2018-03-03T23:22:41.385Z,62.00
2018-03-03T23:25:09.003Z,61.30
2018-03-03T23:27:37.463Z,62.10
2018-03-03T23:30:05.564Z,61.30
2018-03-03T23:32:33.196Z,61.80
2018-03-03T23:35:01.015Z,61.80
2018-03-03T23:37:29.379Z,62.10
2018-03-03T23:39:58.185Z,62.10
2018-03-03T23:42:27.388Z,61.60
2018-03-03T23:44:55.080Z,60.80
2018-03-03T23:47:22.681Z,60.70
2018-03-03T23:49:51.140Z,61.10
2018-03-03T23:52:18.735Z,61.10
2018-03-03T23:54:47.117Z,61.60
2018-03-03T23:57:15.638Z,61.80
2018-03-03T23:59:44.342Z,61.40
